createdAt,value
2019-01-28T00:00:49.794Z,959.492
2019-01-28T00:02:49.794Z,959.534
2019-01-28T00:04:50.213Z,959.588
2019-01-28T00:06:50.491Z,959.611
2019-01-28T00:08:50.540Z,959.614
2019-01-28T00:10:50.559Z,959.659
2019-01-28T00:12:50.611Z,959.676
2019-01-28T00:14:49.692Z,959.763
2019-01-28T00:16:49.948Z,959.840
2019-01-28T00:18:50.003Z,959.890
2019-01-28T00:20:49.967Z,959.938
2019-01-28T00:22:49.967Z,959.975
2019-01-28T00:24:49.945Z,960.019
2019-01-28T00:26:50.177Z,960.031
2019-01-28T00:28:50.186Z,960.093
2019-01-28T00:30:50.177Z,960.149
2019-01-28T00:32:50.236Z,960.193
2019-01-28T00:34:50.401Z,960.251
2019-01-28T00:36:49.710Z,960.251
2019-01-28T00:38:49.909Z,960.369
2019-01-28T00:40:49.962Z,960.456
2019-01-28T00:42:50.002Z,960.456
2019-01-28T00:44:50.008Z,960.596
2019-01-28T00:46:50.172Z,960.660
2019-01-28T00:48:50.180Z,960.705
2019-01-28T00:50:50.210Z,960.714
2019-01-28T00:52:50.243Z,960.749
2019-01-28T00:54:50.235Z,960.772
2019-01-28T00:56:50.488Z,960.806
2019-01-28T00:58:50.550Z,960.812
2019-01-28T01:00:49.729Z,960.844
2019-01-28T01:02:49.909Z,960.853
2019-01-28T01:04:50.381Z,960.870
2019-01-28T01:06:49.639Z,960.918
2019-01-28T01:08:49.634Z,960.951
2019-01-28T01:10:49.641Z,960.994
2019-01-28T01:12:49.841Z,960.979
2019-01-28T01:14:49.888Z,961.036
2019-01-28T01:16:50.120Z,961.049
2019-01-28T01:18:50.166Z,961.076
2019-01-28T01:20:50.220Z,961.069
2019-01-28T01:22:50.281Z,961.084
2019-01-28T01:24:50.271Z,961.084
2019-01-28T01:26:49.676Z,961.091
2019-01-28T01:28:49.668Z,961.130
2019-01-28T01:30:49.723Z,961.176
2019-01-28T01:32:49.772Z,961.209
2019-01-28T01:34:50.279Z,961.237
2019-01-28T01:36:50.475Z,961.260
2019-01-28T01:38:50.452Z,961.260
2019-01-28T01:40:50.465Z,961.297
2019-01-28T01:42:50.466Z,961.346
2019-01-28T01:44:50.547Z,961.402
2019-01-28T01:46:49.831Z,961.455
2019-01-28T01:48:49.866Z,961.455
2019-01-28T01:50:49.857Z,961.523
2019-01-28T01:52:49.889Z,961.513
2019-01-28T01:54:49.950Z,961.523
2019-01-28T01:56:50.125Z,961.533
2019-01-28T01:58:50.124Z,961.538
2019-01-28T02:00:50.066Z,961.539
2019-01-28T02:02:50.073Z,961.568
2019-01-28T02:04:50.279Z,961.568
2019-01-28T02:06:50.544Z,961.635
2019-01-28T02:08:50.580Z,961.660
2019-01-28T02:10:50.558Z,961.667
2019-01-28T02:12:50.646Z,961.710
2019-01-28T02:14:49.796Z,961.768
2019-01-28T02:16:50.083Z,961.758
2019-01-28T02:18:50.165Z,961.797
2019-01-28T02:20:50.331Z,961.829
2019-01-28T02:22:49.717Z,961.837
2019-01-28T02:24:49.803Z,961.828
2019-01-28T02:26:50.196Z,961.826
2019-01-28T02:28:50.359Z,961.830
2019-01-28T02:30:50.438Z,961.828
2019-01-28T02:32:49.634Z,961.822
2019-01-28T02:34:50.054Z,961.787
2019-01-28T02:36:50.260Z,961.756
2019-01-28T02:38:50.383Z,961.764
2019-01-28T02:40:50.438Z,961.742
2019-01-28T02:42:50.628Z,961.726
2019-01-28T02:44:49.689Z,961.735
2019-01-28T02:46:49.890Z,961.735
2019-01-28T02:48:49.934Z,961.751
2019-01-28T02:50:49.974Z,961.751
2019-01-28T02:52:49.951Z,961.717
2019-01-28T02:54:50.085Z,961.708
2019-01-28T02:56:50.289Z,961.704
2019-01-28T02:58:50.349Z,961.701
2019-01-28T03:00:50.339Z,961.683
2019-01-28T03:02:50.410Z,961.681
2019-01-28T03:04:49.637Z,961.706
2019-01-28T03:06:49.934Z,961.716
2019-01-28T03:08:50.283Z,961.726
2019-01-28T03:10:50.347Z,961.676
2019-01-28T03:12:50.428Z,961.611
2019-01-28T03:14:50.379Z,961.603
2019-01-28T03:16:49.660Z,961.602
2019-01-28T03:18:49.711Z,961.611
2019-01-28T03:20:49.783Z,961.637
2019-01-28T03:22:49.793Z,961.664
2019-01-28T03:24:49.899Z,961.665
2019-01-28T03:26:50.091Z,961.657
2019-01-28T03:28:50.147Z,961.657
2019-01-28T03:30:50.283Z,961.671
2019-01-28T03:32:50.350Z,961.693
2019-01-28T03:34:49.864Z,961.766
2019-01-28T03:36:50.022Z,961.801
2019-01-28T03:38:50.079Z,961.818
2019-01-28T03:40:50.066Z,961.808
2019-01-28T03:42:50.096Z,961.790
2019-01-28T03:44:50.101Z,961.736
2019-01-28T03:46:50.337Z,961.735
2019-01-28T03:48:50.334Z,961.700
2019-01-28T03:50:50.345Z,961.691
2019-01-28T03:52:50.356Z,961.697
2019-01-28T03:54:50.373Z,961.679
2019-01-28T03:56:50.543Z,961.670
2019-01-28T03:58:50.515Z,961.672
2019-01-28T04:00:50.573Z,961.688
2019-01-28T04:02:50.520Z,961.734
2019-01-28T04:04:49.964Z,961.744
2019-01-28T04:06:50.229Z,961.818
2019-01-28T04:08:50.254Z,961.867
2019-01-28T04:10:50.285Z,961.880
2019-01-28T04:12:50.317Z,961.891
2019-01-28T04:14:50.275Z,961.897
2019-01-28T04:16:50.551Z,961.917
2019-01-28T04:18:50.467Z,961.909
2019-01-28T04:20:50.528Z,961.887
2019-01-28T04:22:50.522Z,961.868
2019-01-28T04:24:50.544Z,961.872
2019-01-28T04:26:49.736Z,961.853
2019-01-28T04:28:49.785Z,961.853
2019-01-28T04:30:49.897Z,961.807
2019-01-28T04:32:49.841Z,961.783
2019-01-28T04:34:50.109Z,961.754
2019-01-28T04:36:50.368Z,961.763
2019-01-28T04:38:50.322Z,961.767
2019-01-28T04:40:50.464Z,961.778
2019-01-28T04:42:50.493Z,961.771
2019-01-28T04:44:50.602Z,961.761
2019-01-28T04:46:49.781Z,961.732
2019-01-28T04:48:49.915Z,961.741
2019-01-28T04:50:50.050Z,961.769
2019-01-28T04:52:50.136Z,961.770
2019-01-28T04:54:50.177Z,961.726
2019-01-28T04:56:50.387Z,961.747
2019-01-28T04:58:50.380Z,961.748
2019-01-28T05:00:50.433Z,961.758
2019-01-28T05:02:50.422Z,961.763
2019-01-28T05:04:49.723Z,961.731
2019-01-28T05:06:49.888Z,961.725
2019-01-28T05:08:49.962Z,961.730
2019-01-28T05:10:50.104Z,961.712
2019-01-28T05:12:50.235Z,961.738
2019-01-28T05:14:50.310Z,961.715
2019-01-28T05:16:50.562Z,961.704
2019-01-28T05:18:49.745Z,961.675
2019-01-28T05:20:49.771Z,961.638
2019-01-28T05:22:49.878Z,961.630
2019-01-28T05:24:49.928Z,961.624
2019-01-28T05:26:49.772Z,961.605
2019-01-28T05:28:49.802Z,961.599
2019-01-28T05:30:49.820Z,961.583
2019-01-28T05:32:49.848Z,961.591
2019-01-28T05:34:50.326Z,961.595
2019-01-28T05:36:50.585Z,961.612
2019-01-28T05:38:50.574Z,961.614
2019-01-28T05:40:50.625Z,961.597
2019-01-28T05:42:49.648Z,961.590
2019-01-28T05:44:50.408Z,961.552
2019-01-28T05:46:49.742Z,961.544
2019-01-28T05:48:49.818Z,961.544
2019-01-28T05:50:49.867Z,961.532
2019-01-28T05:52:49.949Z,961.551
2019-01-28T05:54:49.892Z,961.586
2019-01-28T05:56:50.127Z,961.564
2019-01-28T05:58:50.131Z,961.550
2019-01-28T06:00:50.089Z,961.535
2019-01-28T06:02:50.225Z,961.510
2019-01-28T06:04:49.647Z,961.514
2019-01-28T06:06:49.850Z,961.508
2019-01-28T06:08:49.777Z,961.526
2019-01-28T06:10:49.753Z,961.509
2019-01-28T06:12:49.899Z,961.484
2019-01-28T06:14:49.865Z,961.476
2019-01-28T06:16:50.030Z,961.499
2019-01-28T06:18:50.007Z,961.506
2019-01-28T06:20:50.005Z,961.504
2019-01-28T06:22:49.983Z,961.500
2019-01-28T06:24:49.938Z,961.455
2019-01-28T06:26:50.134Z,961.454
2019-01-28T06:28:50.149Z,961.471
2019-01-28T06:30:50.116Z,961.496
2019-01-28T06:32:50.070Z,961.495
2019-01-28T06:34:50.384Z,961.491
2019-01-28T06:36:50.250Z,961.481
2019-01-28T06:38:50.290Z,961.465
2019-01-28T06:40:50.314Z,961.457
2019-01-28T06:42:50.394Z,961.457
2019-01-28T06:44:50.371Z,961.419
2019-01-28T06:46:50.579Z,961.404
2019-01-28T06:48:50.569Z,961.426
2019-01-28T06:50:49.623Z,961.467
2019-01-28T06:52:49.735Z,961.471
2019-01-28T06:54:49.759Z,961.489
2019-01-28T06:56:50.008Z,961.489
2019-01-28T06:58:50.037Z,961.521
2019-01-28T07:00:50.147Z,961.521
2019-01-28T07:02:50.171Z,961.541
2019-01-28T07:04:50.374Z,961.536
2019-01-28T07:06:49.638Z,961.536
2019-01-28T07:08:49.730Z,961.536
2019-01-28T07:10:49.769Z,961.561
2019-01-28T07:12:49.794Z,961.553
2019-01-28T07:14:49.908Z,961.515
2019-01-28T07:16:50.103Z,961.513
2019-01-28T07:18:50.151Z,961.526
2019-01-28T07:20:50.160Z,961.529
2019-01-28T07:22:50.176Z,961.505
2019-01-28T07:24:50.169Z,961.526
2019-01-28T07:26:50.357Z,961.500
2019-01-28T07:28:50.324Z,961.499
2019-01-28T07:30:50.305Z,961.507
2019-01-28T07:32:50.394Z,961.482
2019-01-28T07:34:49.625Z,961.511
2019-01-28T07:36:49.802Z,961.523
2019-01-28T07:38:49.816Z,961.533
2019-01-28T07:40:49.913Z,961.516
2019-01-28T07:42:49.937Z,961.500
2019-01-28T07:44:49.901Z,961.500
2019-01-28T07:46:50.056Z,961.516
2019-01-28T07:48:50.031Z,961.485
2019-01-28T07:50:49.994Z,961.503
2019-01-28T07:52:50.031Z,961.502
2019-01-28T07:54:50.047Z,961.506
2019-01-28T07:56:50.325Z,961.523
2019-01-28T07:58:50.340Z,961.513
2019-01-28T08:00:50.362Z,961.514
2019-01-28T08:02:50.447Z,961.514
2019-01-28T08:04:49.970Z,961.504
2019-01-28T08:06:59.857Z,961.526
2019-01-28T08:08:49.938Z,961.547
2019-01-28T08:10:49.892Z,961.570
2019-01-28T08:12:50.093Z,961.527
2019-01-28T08:14:50.237Z,961.527
2019-01-28T08:16:50.417Z,961.473
2019-01-28T08:18:49.612Z,961.482
2019-01-28T08:20:49.694Z,961.483
2019-01-28T08:22:49.840Z,961.485
2019-01-28T08:24:49.933Z,961.487
2019-01-28T08:26:50.193Z,961.501
2019-01-28T08:28:50.239Z,961.500
2019-01-28T08:30:50.387Z,961.494
2019-01-28T08:32:50.459Z,961.479
2019-01-28T08:34:49.830Z,961.470
2019-01-28T08:36:50.173Z,961.440
2019-01-28T08:38:50.223Z,961.453
2019-01-28T08:40:50.267Z,961.424
2019-01-28T08:42:50.360Z,961.402
2019-01-28T08:44:50.280Z,961.413
2019-01-28T08:46:49.662Z,961.385
2019-01-28T08:48:49.624Z,961.371
2019-01-28T08:50:49.738Z,961.363
2019-01-28T08:52:49.678Z,961.372
2019-01-28T08:54:49.745Z,961.386
2019-01-28T08:56:49.919Z,961.382
2019-01-28T08:58:49.903Z,961.373
2019-01-28T09:00:50.039Z,961.379
2019-01-28T09:02:50.008Z,961.371
2019-01-28T09:04:50.222Z,961.373
2019-01-28T09:06:50.417Z,961.377
2019-01-28T09:08:50.344Z,961.344
2019-01-28T09:10:50.401Z,961.299
2019-01-28T09:12:50.423Z,961.318
2019-01-28T09:14:50.471Z,961.302
2019-01-28T09:16:49.618Z,961.302
2019-01-28T09:18:49.773Z,961.313
2019-01-28T09:20:49.836Z,961.327
2019-01-28T09:22:50.046Z,961.327
2019-01-28T09:24:50.261Z,961.345
2019-01-28T09:26:50.526Z,961.363
2019-01-28T09:28:50.576Z,961.340
2019-01-28T09:30:50.474Z,961.330
2019-01-28T09:32:50.522Z,961.331
2019-01-28T09:34:50.057Z,961.323
2019-01-28T09:36:50.187Z,961.349
2019-01-28T09:38:50.137Z,961.347
2019-01-28T09:40:50.188Z,961.335
2019-01-28T09:42:50.130Z,961.400
2019-01-28T09:44:50.178Z,961.400
2019-01-28T09:46:50.353Z,961.383
2019-01-28T09:48:50.420Z,961.434
2019-01-28T09:50:50.478Z,961.408
2019-01-28T09:52:50.427Z,961.412
2019-01-28T09:54:50.603Z,961.458
2019-01-28T09:56:49.969Z,961.468
2019-01-28T09:58:49.955Z,961.449
2019-01-28T10:00:49.991Z,961.434
2019-01-28T10:02:49.990Z,961.422
2019-01-28T10:04:50.355Z,961.463
2019-01-28T10:06:49.651Z,961.466
2019-01-28T10:08:50.588Z,961.457
2019-01-28T10:10:49.605Z,961.492
2019-01-28T10:12:49.869Z,961.498
2019-01-28T10:14:49.916Z,961.489
2019-01-28T10:16:50.102Z,961.500
2019-01-28T10:18:50.351Z,961.459
2019-01-28T10:20:50.516Z,961.447
2019-01-28T10:22:49.725Z,961.445
2019-01-28T10:24:49.835Z,961.382
2019-01-28T10:26:50.063Z,961.387
2019-01-28T10:28:50.083Z,961.357
2019-01-28T10:30:50.043Z,961.317
2019-01-28T10:32:50.026Z,961.349
2019-01-28T10:34:51.911Z,961.344
2019-01-28T10:36:50.197Z,961.347
2019-01-28T10:38:50.338Z,961.337
2019-01-28T10:40:50.389Z,961.369
2019-01-28T10:42:50.380Z,961.412
2019-01-28T10:44:50.480Z,961.411
2019-01-28T10:46:49.655Z,961.409
2019-01-28T10:48:50.075Z,961.455
2019-01-28T10:50:50.103Z,961.447
2019-01-28T10:52:50.113Z,961.445
2019-01-28T10:54:50.138Z,961.431
2019-01-28T10:56:50.426Z,961.497
2019-01-28T10:58:50.413Z,961.495
2019-01-28T11:00:50.336Z,961.497
2019-01-28T11:02:50.363Z,961.470
2019-01-28T11:04:49.724Z,961.468
2019-01-28T11:06:50.052Z,961.513
2019-01-28T11:08:50.188Z,961.484
2019-01-28T11:10:50.199Z,961.471
2019-01-28T11:12:50.496Z,961.464
2019-01-28T11:14:49.848Z,961.467
2019-01-28T11:16:50.502Z,961.452
2019-01-28T11:18:58.274Z,961.443
2019-01-28T11:20:50.735Z,961.443
2019-01-28T11:22:50.409Z,961.422
2019-01-28T11:24:49.890Z,961.411
2019-01-28T11:26:50.619Z,961.328
2019-01-28T11:28:50.166Z,961.301
2019-01-28T11:30:50.377Z,961.290
2019-01-28T11:32:49.626Z,961.241
2019-01-28T11:34:50.541Z,961.223
2019-01-28T11:36:50.261Z,961.241
2019-01-28T11:38:50.863Z,961.171
2019-01-28T11:40:50.279Z,961.171
2019-01-28T11:42:50.840Z,961.125
2019-01-28T11:44:50.038Z,961.074
2019-01-28T11:46:50.369Z,961.101
2019-01-28T11:48:50.298Z,961.115
2019-01-28T11:50:56.576Z,961.115
2019-01-28T11:52:49.769Z,961.136
2019-01-28T11:54:49.825Z,961.140
2019-01-28T11:56:50.210Z,961.113
2019-01-28T11:58:50.306Z,961.129
2019-01-28T12:00:50.333Z,961.208
2019-01-28T12:02:50.443Z,961.201
2019-01-28T12:04:49.776Z,961.179
2019-01-28T12:06:49.953Z,961.193
2019-01-28T12:08:49.910Z,961.161
2019-01-28T12:10:49.893Z,961.186
2019-01-28T12:12:50.059Z,961.210
2019-01-28T12:14:50.058Z,961.256
2019-01-28T12:16:50.172Z,961.254
2019-01-28T12:18:50.150Z,961.233
2019-01-28T12:20:54.106Z,961.248
2019-01-28T12:22:50.094Z,961.255
2019-01-28T12:24:50.020Z,961.234
2019-01-28T12:26:50.162Z,961.273
2019-01-28T12:28:50.207Z,961.256
2019-01-28T12:30:50.208Z,961.234
2019-01-28T12:32:50.217Z,961.222
2019-01-28T12:34:50.580Z,961.292
2019-01-28T12:36:49.937Z,961.283
2019-01-28T12:38:50.422Z,961.248
2019-01-28T12:40:50.534Z,961.271
2019-01-28T12:42:50.500Z,961.250
2019-01-28T12:44:49.694Z,961.275
2019-01-28T12:46:50.066Z,961.253
2019-01-28T12:48:50.107Z,961.251
2019-01-28T12:50:50.092Z,961.229
2019-01-28T12:52:50.110Z,961.235
2019-01-28T12:54:50.087Z,961.259
2019-01-28T12:56:50.512Z,961.284
2019-01-28T12:58:50.587Z,961.313
2019-01-28T13:00:49.663Z,961.313
2019-01-28T13:02:49.630Z,961.331
2019-01-28T13:04:49.916Z,961.328
2019-01-28T13:06:50.170Z,961.328
2019-01-28T13:08:50.147Z,961.286
2019-01-28T13:10:50.228Z,961.299
2019-01-28T13:12:50.253Z,961.352
2019-01-28T13:14:50.191Z,961.352
2019-01-28T13:16:50.445Z,961.358
2019-01-28T13:18:50.453Z,961.411
2019-01-28T13:20:50.453Z,961.369
2019-01-28T13:22:50.460Z,961.365
2019-01-28T13:24:50.531Z,961.408
2019-01-28T13:26:49.835Z,961.408
2019-01-28T13:28:49.841Z,961.412
2019-01-28T13:30:49.793Z,961.371
2019-01-28T13:32:49.804Z,961.371
2019-01-28T13:34:50.160Z,961.369
2019-01-28T13:36:50.340Z,961.381
2019-01-28T13:38:50.418Z,961.421
2019-01-28T13:40:50.462Z,961.436
2019-01-28T13:42:50.442Z,961.475
2019-01-28T13:44:50.469Z,961.461
2019-01-28T13:46:49.707Z,961.466
2019-01-28T13:48:49.776Z,961.487
2019-01-28T13:50:49.781Z,961.507
2019-01-28T13:52:49.808Z,961.522
2019-01-28T13:54:49.953Z,961.554
2019-01-28T13:56:50.154Z,961.579
2019-01-28T13:58:51.854Z,961.587
2019-01-28T14:00:49.850Z,961.594
2019-01-28T14:02:49.807Z,961.618
2019-01-28T14:04:50.326Z,961.633
2019-01-28T14:06:50.522Z,961.661
2019-01-28T14:08:50.583Z,961.669
2019-01-28T14:10:49.629Z,961.681
2019-01-28T14:12:49.634Z,961.706
2019-01-28T14:14:49.746Z,961.733
2019-01-28T14:16:49.957Z,961.762
2019-01-28T14:18:50.026Z,961.793
2019-01-28T14:20:53.773Z,961.793
2019-01-28T14:22:49.773Z,961.788
2019-01-28T14:24:49.895Z,961.793
2019-01-28T14:26:50.043Z,961.778
2019-01-28T14:28:50.003Z,961.792
2019-01-28T14:30:49.964Z,961.811
2019-01-28T14:32:49.967Z,961.818
2019-01-28T14:34:50.362Z,961.797
2019-01-28T14:36:50.566Z,961.811
2019-01-28T14:38:50.526Z,961.817
2019-01-28T14:40:50.633Z,961.829
2019-01-28T14:42:50.566Z,961.864
2019-01-28T14:44:49.640Z,961.870
2019-01-28T14:46:49.849Z,961.898
2019-01-28T14:48:49.868Z,961.914
2019-01-28T14:50:49.845Z,961.917
2019-01-28T14:52:50.238Z,961.913
2019-01-28T14:54:50.271Z,961.920
2019-01-28T14:56:52.389Z,961.906
2019-01-28T14:58:50.488Z,961.938
2019-01-28T15:00:50.442Z,961.955
2019-01-28T15:02:50.457Z,961.955
2019-01-28T15:04:49.897Z,961.984
2019-01-28T15:06:50.122Z,962.016
2019-01-28T15:08:50.204Z,962.027
2019-01-28T15:10:50.342Z,962.024
2019-01-28T15:12:50.303Z,962.020
2019-01-28T15:14:50.367Z,962.051
2019-01-28T15:16:49.757Z,962.073
2019-01-28T15:18:49.780Z,962.052
2019-01-28T15:20:49.789Z,962.062
2019-01-28T15:22:49.792Z,962.052
2019-01-28T15:24:49.933Z,962.075
2019-01-28T15:26:50.195Z,962.079
2019-01-28T15:28:50.341Z,962.084
2019-01-28T15:30:50.480Z,962.094
2019-01-28T15:32:50.650Z,962.140
2019-01-28T15:34:50.303Z,962.151
2019-01-28T15:36:50.575Z,962.172
2019-01-28T15:38:50.623Z,962.207
2019-01-28T15:40:49.714Z,962.225
2019-01-28T15:42:49.725Z,962.229
2019-01-28T15:44:49.786Z,962.261
2019-01-28T15:46:49.935Z,962.263
2019-01-28T15:48:49.958Z,962.274
2019-01-28T15:50:49.926Z,962.319
2019-01-28T15:52:51.417Z,962.344
2019-01-28T15:54:50.544Z,962.331
2019-01-28T15:56:49.751Z,962.358
2019-01-28T15:58:49.778Z,962.371
2019-01-28T16:00:49.907Z,962.399
2019-01-28T16:02:49.899Z,962.395
2019-01-28T16:04:50.153Z,962.419
2019-01-28T16:06:50.413Z,962.438
2019-01-28T16:08:50.385Z,962.450
2019-01-28T16:10:50.444Z,962.455
2019-01-28T16:12:50.413Z,962.474
2019-01-28T16:14:50.424Z,962.481
2019-01-28T16:16:49.621Z,962.515
2019-01-28T16:18:49.675Z,962.562
2019-01-28T16:20:50.602Z,962.572
2019-01-28T16:22:49.626Z,962.615
2019-01-28T16:24:49.658Z,962.632
2019-01-28T16:26:49.911Z,962.709
2019-01-28T16:28:49.892Z,962.711
2019-01-28T16:30:49.879Z,962.724
2019-01-28T16:32:49.833Z,962.776
2019-01-28T16:34:50.213Z,962.776
2019-01-28T16:36:50.298Z,962.839
2019-01-28T16:38:50.222Z,962.854
2019-01-28T16:40:50.250Z,962.889
2019-01-28T16:42:50.249Z,962.889
2019-01-28T16:44:50.201Z,962.934
2019-01-28T16:46:50.464Z,962.955
2019-01-28T16:48:50.449Z,962.970
2019-01-28T16:50:50.543Z,963.001
2019-01-28T16:52:50.570Z,963.015
2019-01-28T16:54:50.639Z,963.019
2019-01-28T16:56:49.909Z,963.055
2019-01-28T16:58:49.916Z,963.083
2019-01-28T17:00:49.989Z,963.089
2019-01-28T17:02:49.961Z,963.139
2019-01-28T17:04:50.265Z,963.176
2019-01-28T17:06:50.393Z,963.196
2019-01-28T17:08:50.357Z,963.196
2019-01-28T17:10:50.348Z,963.239
2019-01-28T17:12:50.311Z,963.232
2019-01-28T17:14:50.373Z,963.232
2019-01-28T17:16:50.566Z,963.245
2019-01-28T17:18:49.600Z,963.254
2019-01-28T17:20:49.680Z,963.298
2019-01-28T17:22:49.754Z,963.318
2019-01-28T17:24:49.829Z,963.338
2019-01-28T17:26:50.129Z,963.378
2019-01-28T17:28:50.251Z,963.373
2019-01-28T17:30:50.307Z,963.408
2019-01-28T17:32:50.292Z,963.436
2019-01-28T17:34:49.750Z,963.436
2019-01-28T17:36:49.909Z,963.482
2019-01-28T17:38:49.867Z,963.498
2019-01-28T17:40:49.829Z,963.502
2019-01-28T17:42:49.886Z,963.537
2019-01-28T17:44:49.864Z,963.612
2019-01-28T17:46:50.038Z,963.634
2019-01-28T17:48:50.182Z,963.660
2019-01-28T17:50:50.156Z,963.668
2019-01-28T17:52:50.405Z,963.679
2019-01-28T17:54:50.385Z,963.707
2019-01-28T17:56:49.610Z,963.719
2019-01-28T17:58:49.859Z,963.754
2019-01-28T18:00:50.117Z,963.768
2019-01-28T18:02:50.142Z,963.809
2019-01-28T18:04:50.395Z,963.817
2019-01-28T18:06:50.594Z,963.837
2019-01-28T18:08:49.679Z,963.852
2019-01-28T18:10:49.660Z,963.856
2019-01-28T18:12:49.726Z,963.873
2019-01-28T18:14:49.722Z,963.896
2019-01-28T18:16:50.031Z,963.936
2019-01-28T18:18:49.992Z,963.938
2019-01-28T18:20:52.427Z,963.938
2019-01-28T18:22:50.436Z,964.017
2019-01-28T18:24:50.474Z,964.017
2019-01-28T18:26:49.905Z,964.049
2019-01-28T18:28:49.905Z,964.049
2019-01-28T18:30:50.014Z,964.082
2019-01-28T18:32:50.186Z,964.077
2019-01-28T18:34:50.376Z,964.116
2019-01-28T18:36:49.637Z,964.139
2019-01-28T18:38:49.791Z,964.170
2019-01-28T18:40:49.860Z,964.164
2019-01-28T18:42:49.842Z,964.173
2019-01-28T18:44:49.836Z,964.229
2019-01-28T18:46:50.142Z,964.281
2019-01-28T18:48:50.260Z,964.296
2019-01-28T18:50:50.236Z,964.336
2019-01-28T18:52:50.228Z,964.377
2019-01-28T18:54:50.207Z,964.372
2019-01-28T18:56:50.523Z,964.428
2019-01-28T18:58:49.640Z,964.425
2019-01-28T19:00:49.667Z,964.470
2019-01-28T19:02:49.771Z,964.498
2019-01-28T19:04:50.362Z,964.536
2019-01-28T19:06:50.576Z,964.591
2019-01-28T19:08:50.598Z,964.598
2019-01-28T19:10:49.721Z,964.632
2019-01-28T19:12:49.750Z,964.656
2019-01-28T19:14:49.878Z,964.714
2019-01-28T19:16:50.129Z,964.748
2019-01-28T19:18:50.141Z,964.796
2019-01-28T19:20:50.163Z,964.829
2019-01-28T19:22:50.260Z,964.872
2019-01-28T19:24:50.302Z,964.917
2019-01-28T19:26:50.591Z,964.979
2019-01-28T19:28:49.622Z,964.981
2019-01-28T19:30:49.708Z,965.031
2019-01-28T19:32:49.833Z,965.043
2019-01-28T19:34:50.251Z,965.110
2019-01-28T19:36:50.514Z,965.138
2019-01-28T19:38:50.570Z,965.170
2019-01-28T19:40:49.634Z,965.197
2019-01-28T19:42:49.869Z,965.242
2019-01-28T19:44:49.879Z,965.264
2019-01-28T19:46:50.146Z,965.344
2019-01-28T19:48:50.372Z,965.379
2019-01-28T19:50:50.383Z,965.382
2019-01-28T19:52:50.399Z,965.421
2019-01-28T19:54:50.376Z,965.459
2019-01-28T19:56:49.690Z,965.498
2019-01-28T19:58:49.731Z,965.537
2019-01-28T20:00:49.822Z,965.616
2019-01-28T20:02:49.864Z,965.616
2019-01-28T20:04:50.131Z,965.722
2019-01-28T20:06:50.314Z,965.764
2019-01-28T20:08:50.261Z,965.793
2019-01-28T20:10:50.278Z,965.825
2019-01-28T20:12:50.249Z,965.825
2019-01-28T20:14:50.238Z,965.881
2019-01-28T20:16:50.502Z,965.912
2019-01-28T20:18:50.600Z,965.963
2019-01-28T20:20:50.607Z,965.973
2019-01-28T20:22:49.718Z,966.022
2019-01-28T20:24:49.811Z,966.078
2019-01-28T20:26:50.017Z,966.078
2019-01-28T20:28:50.137Z,966.146
2019-01-28T20:30:50.126Z,966.182
2019-01-28T20:32:50.101Z,966.238
2019-01-28T20:34:50.539Z,966.279
2019-01-28T20:36:49.890Z,966.311
2019-01-28T20:38:49.891Z,966.323
2019-01-28T20:40:49.875Z,966.338
2019-01-28T20:42:49.862Z,966.393
2019-01-28T20:44:49.956Z,966.393
2019-01-28T20:46:50.166Z,966.478
2019-01-28T20:48:50.307Z,966.490
2019-01-28T20:50:50.423Z,966.544
2019-01-28T20:52:50.533Z,966.612
2019-01-28T20:54:49.675Z,966.671
2019-01-28T20:56:50.085Z,966.743
2019-01-28T20:58:50.263Z,966.782
2019-01-28T21:00:50.358Z,966.804
2019-01-28T21:02:50.523Z,966.854
2019-01-28T21:04:49.986Z,966.887
2019-01-28T21:06:50.301Z,966.928
2019-01-28T21:08:50.587Z,966.983
2019-01-28T21:10:49.786Z,966.983
2019-01-28T21:12:49.964Z,967.091
2019-01-28T21:14:50.267Z,967.133
2019-01-28T21:16:50.584Z,967.157
2019-01-28T21:18:49.765Z,967.188
2019-01-28T21:20:49.831Z,967.232
2019-01-28T21:22:49.878Z,967.232
2019-01-28T21:24:49.910Z,967.327
2019-01-28T21:26:50.167Z,967.367
2019-01-28T21:28:50.208Z,967.402
2019-01-28T21:30:50.236Z,967.441
2019-01-28T21:32:50.339Z,967.497
2019-01-28T21:34:49.800Z,967.548
2019-01-28T21:36:50.083Z,967.575
2019-01-28T21:38:49.811Z,967.596
2019-01-28T21:40:49.818Z,967.652
2019-01-28T21:42:49.807Z,967.669
2019-01-28T21:44:49.918Z,967.687
2019-01-28T21:46:50.190Z,967.731
2019-01-28T21:48:50.327Z,967.768
2019-01-28T21:50:50.398Z,967.791
2019-01-28T21:52:50.476Z,967.832
2019-01-28T21:54:50.489Z,967.857
2019-01-28T21:56:49.798Z,967.855
2019-01-28T21:58:49.840Z,967.909
2019-01-28T22:00:49.949Z,967.926
2019-01-28T22:02:49.929Z,967.941
2019-01-28T22:04:50.230Z,967.958
2019-01-28T22:06:50.630Z,967.976
2019-01-28T22:08:49.637Z,968.002
2019-01-28T22:10:49.709Z,968.047
2019-01-28T22:12:49.734Z,968.049
2019-01-28T22:14:49.715Z,968.086
2019-01-28T22:16:49.797Z,968.114
2019-01-28T22:18:49.877Z,968.136
2019-01-28T22:20:49.896Z,968.157
2019-01-28T22:22:49.900Z,968.226
2019-01-28T22:24:49.867Z,968.249
2019-01-28T22:26:50.091Z,968.282
2019-01-28T22:28:50.021Z,968.289
2019-01-28T22:30:50.044Z,968.303
2019-01-28T22:32:50.042Z,968.349
2019-01-28T22:34:50.443Z,968.349
2019-01-28T22:36:50.561Z,968.417
2019-01-28T22:38:50.491Z,968.430
2019-01-28T22:40:50.536Z,968.474
2019-01-28T22:42:50.516Z,968.547
2019-01-28T22:44:49.660Z,968.612
2019-01-28T22:46:49.807Z,968.653
2019-01-28T22:48:49.909Z,968.676
2019-01-28T22:50:49.927Z,968.725
2019-01-28T22:52:49.897Z,968.767
2019-01-28T22:54:49.871Z,968.783
2019-01-28T22:56:50.086Z,968.834
2019-01-28T22:58:50.101Z,968.865
2019-01-28T23:00:50.087Z,968.907
2019-01-28T23:02:49.926Z,968.930
2019-01-28T23:04:50.143Z,968.972
2019-01-28T23:06:50.305Z,968.966
2019-01-28T23:08:50.406Z,968.988
2019-01-28T23:10:50.380Z,969.037
2019-01-28T23:12:50.458Z,969.044
2019-01-28T23:14:50.385Z,969.052
2019-01-28T23:16:49.754Z,969.047
2019-01-28T23:18:49.732Z,969.081
2019-01-28T23:20:49.841Z,969.116
2019-01-28T23:22:49.939Z,969.121
2019-01-28T23:24:50.002Z,969.131
2019-01-28T23:26:50.361Z,969.132
2019-01-28T23:28:50.338Z,969.155
2019-01-28T23:30:50.422Z,969.142
2019-01-28T23:32:50.385Z,969.181
2019-01-28T23:34:49.853Z,969.219
2019-01-28T23:36:50.037Z,969.247
2019-01-28T23:38:50.059Z,969.268
2019-01-28T23:40:50.121Z,969.288
2019-01-28T23:42:50.070Z,969.306
2019-01-28T23:44:50.095Z,969.319
2019-01-28T23:46:50.394Z,969.328
2019-01-28T23:48:50.427Z,969.356
2019-01-28T23:50:50.518Z,969.356
2019-01-28T23:52:50.517Z,969.406
2019-01-28T23:54:50.511Z,969.406
2019-01-28T23:56:49.716Z,969.450
2019-01-28T23:58:49.800Z,969.487
